BUR weather

Bob Hope Airport
Burbank, California, United States

Public forecast

Using degrees Fahrenheit for public forecast. Weather courtesy of forecast.io.

Current aviation weather report (METAR) for Bob Hope Airport

Retrieved 2020/06/06 20:53 UTC (33 minutes ago):

KBUR 062053Z 12009KT 10SM SCT037 OVC045 22/11 A2993 RMK AO2 SLP124 T02170111 56003

Aviation forecast (TAF) for Bob Hope Airport

Retrieved 2020/06/06 18:45 UTC (3 hours ago):

TAF KBUR 061742Z 0618/0718 16008KT P6SM SCT017 OVC040 FM062200 18010KT P6SM SCT045 FM070500 14006KT P6SM SKC FM071200 35008KT P6SM SKC